sensor_id;sensor_type;location;lat;lon;timestamp;temperature;humidity
30047;DHT22;16878;52.542;13.426;2022-12-31T00:01:10;9.00;99.90
30047;DHT22;16878;52.542;13.426;2022-12-31T00:03:36;9.00;99.90
30047;DHT22;16878;52.542;13.426;2022-12-31T00:06:26;9.00;99.90
30047;DHT22;16878;52.542;13.426;2022-12-31T00:08:56;9.00;99.90
30047;DHT22;16878;52.542;13.426;2022-12-31T00:11:28;9.00;99.90
30047;DHT22;16878;52.542;13.426;2022-12-31T00:13:54;9.00;99.90
30047;DHT22;16878;52.542;13.426;2022-12-31T00:16:21;9.00;99.90
30047;DHT22;16878;52.542;13.426;2022-12-31T00:18:47;9.00;99.90
30047;DHT22;16878;52.542;13.426;2022-12-31T00:21:13;9.00;99.90
30047;DHT22;16878;52.542;13.426;2022-12-31T00:23:39;9.00;99.90
30047;DHT22;16878;52.542;13.426;2022-12-31T00:26:06;9.00;99.90
30047;DHT22;16878;52.542;13.426;2022-12-31T00:28:35;9.10;99.90
30047;DHT22;16878;52.542;13.426;2022-12-31T00:31:11;9.10;99.90
30047;DHT22;16878;52.542;13.426;2022-12-31T00:33:37;9.10;99.90
30047;DHT22;16878;52.542;13.426;2022-12-31T00:38:35;9.10;99.90
30047;DHT22;16878;52.542;13.426;2022-12-31T00:41:01;9.10;99.90
30047;DHT22;16878;52.542;13.426;2022-12-31T00:43:26;9.10;99.90
30047;DHT22;16878;52.542;13.426;2022-12-31T00:45:52;9.00;99.90
30047;DHT22;16878;52.542;13.426;2022-12-31T00:48:18;8.90;99.90
30047;DHT22;16878;52.542;13.426;2022-12-31T00:50:43;9.00;99.90
30047;DHT22;16878;52.542;13.426;2022-12-31T00:53:13;8.90;99.90
30047;DHT22;16878;52.542;13.426;2022-12-31T00:55:38;8.80;99.90
30047;DHT22;16878;52.542;13.426;2022-12-31T00:58:04;8.80;99.90
30047;DHT22;16878;52.542;13.426;2022-12-31T01:00:29;8.70;99.90
30047;DHT22;16878;52.542;13.426;2022-12-31T01:02:55;8.60;99.90
30047;DHT22;16878;52.542;13.426;2022-12-31T01:05:20;8.60;99.90
30047;DHT22;16878;52.542;13.426;2022-12-31T01:07:46;8.60;99.90
30047;DHT22;16878;52.542;13.426;2022-12-31T01:10:11;8.60;99.90
30047;DHT22;16878;52.542;13.426;2022-12-31T01:12:37;8.60;99.90
30047;DHT22;16878;52.542;13.426;2022-12-31T01:15:02;8.50;99.90
30047;DHT22;16878;52.542;13.426;2022-12-31T01:17:28;8.60;99.90
30047;DHT22;16878;52.542;13.426;2022-12-31T01:19:54;8.70;99.90
30047;DHT22;16878;52.542;13.426;2022-12-31T01:22:22;8.70;99.90
30047;DHT22;16878;52.542;13.426;2022-12-31T01:24:47;8.80;99.90
30047;DHT22;16878;52.542;13.426;2022-12-31T01:27:13;8.80;99.90
30047;DHT22;16878;52.542;13.426;2022-12-31T01:29:39;8.80;99.90
30047;DHT22;16878;52.542;13.426;2022-12-31T01:32:04;8.90;99.90
30047;DHT22;16878;52.542;13.426;2022-12-31T01:34:30;8.90;99.90
30047;DHT22;16878;52.542;13.426;2022-12-31T01:36:55;9.00;99.90
30047;DHT22;16878;52.542;13.426;2022-12-31T01:39:21;9.00;99.90
30047;DHT22;16878;52.542;13.426;2022-12-31T01:41:46;9.10;99.90
30047;DHT22;16878;52.542;13.426;2022-12-31T01:46:53;9.10;99.90
30047;DHT22;16878;52.542;13.426;2022-12-31T01:51:45;9.20;99.90
30047;DHT22;16878;52.542;13.426;2022-12-31T01:54:13;9.20;99.90
30047;DHT22;16878;52.542;13.426;2022-12-31T01:56:39;9.20;99.90
30047;DHT22;16878;52.542;13.426;2022-12-31T01:59:06;9.30;99.90
30047;DHT22;16878;52.542;13.426;2022-12-31T02:01:33;9.30;99.90
30047;DHT22;16878;52.542;13.426;2022-12-31T02:04:02;9.40;99.90
30047;DHT22;16878;52.542;13.426;2022-12-31T02:06:31;9.40;99.90
30047;DHT22;16878;52.542;13.426;2022-12-31T02:08:58;9.30;99.90
30047;DHT22;16878;52.542;13.426;2022-12-31T02:13:50;9.30;99.90
30047;DHT22;16878;52.542;13.426;2022-12-31T02:16:19;9.40;99.90
30047;DHT22;16878;52.542;13.426;2022-12-31T02:21:43;9.50;99.90
30047;DHT22;16878;52.542;13.426;2022-12-31T02:29:35;9.70;99.90
30047;DHT22;16878;52.542;13.426;2022-12-31T02:32:04;9.70;99.90
30047;DHT22;16878;52.542;13.426;2022-12-31T02:34:40;9.70;99.90
30047;DHT22;16878;52.542;13.426;2022-12-31T02:37:09;9.80;99.90
30047;DHT22;16878;52.542;13.426;2022-12-31T02:39:36;9.70;99.90
30047;DHT22;16878;52.542;13.426;2022-12-31T02:42:02;9.70;99.90
30047;DHT22;16878;52.542;13.426;2022-12-31T02:44:29;9.70;99.90
30047;DHT22;16878;52.542;13.426;2022-12-31T02:49:32;9.70;99.90
30047;DHT22;16878;52.542;13.426;2022-12-31T02:52:04;9.70;99.90
30047;DHT22;16878;52.542;13.426;2022-12-31T02:55:15;9.70;99.90
30047;DHT22;16878;52.542;13.426;2022-12-31T03:00:02;9.70;99.90
30047;DHT22;16878;52.542;13.426;2022-12-31T03:02:46;9.70;99.90
30047;DHT22;16878;52.542;13.426;2022-12-31T03:05:14;9.70;99.90
30047;DHT22;16878;52.542;13.426;2022-12-31T03:07:41;9.80;99.90
30047;DHT22;16878;52.542;13.426;2022-12-31T03:10:08;9.80;99.90
30047;DHT22;16878;52.542;13.426;2022-12-31T03:12:34;9.80;99.90
30047;DHT22;16878;52.542;13.426;2022-12-31T03:15:19;9.80;99.90
30047;DHT22;16878;52.542;13.426;2022-12-31T03:17:46;9.70;99.90
30047;DHT22;16878;52.542;13.426;2022-12-31T03:20:12;9.70;99.90
30047;DHT22;16878;52.542;13.426;2022-12-31T03:22:56;9.70;99.90
30047;DHT22;16878;52.542;13.426;2022-12-31T03:25:22;9.80;99.90
30047;DHT22;16878;52.542;13.426;2022-12-31T03:30:31;9.80;99.90
30047;DHT22;16878;52.542;13.426;2022-12-31T03:32:57;9.80;99.90
30047;DHT22;16878;52.542;13.426;2022-12-31T03:35:23;9.80;99.90
30047;DHT22;16878;52.542;13.426;2022-12-31T03:37:49;9.80;99.90
30047;DHT22;16878;52.542;13.426;2022-12-31T03:40:20;9.80;99.90
30047;DHT22;16878;52.542;13.426;2022-12-31T03:42:46;9.80;99.90
30047;DHT22;16878;52.542;13.426;2022-12-31T03:45:11;9.70;99.90
30047;DHT22;16878;52.542;13.426;2022-12-31T03:47:37;9.70;99.90
30047;DHT22;16878;52.542;13.426;2022-12-31T03:50:03;9.80;99.90
30047;DHT22;16878;52.542;13.426;2022-12-31T03:52:29;9.80;99.90
30047;DHT22;16878;52.542;13.426;2022-12-31T03:54:55;9.80;99.90
30047;DHT22;16878;52.542;13.426;2022-12-31T03:57:20;9.80;99.90
30047;DHT22;16878;52.542;13.426;2022-12-31T03:59:46;9.80;99.90
30047;DHT22;16878;52.542;13.426;2022-12-31T04:02:11;9.80;99.90
30047;DHT22;16878;52.542;13.426;2022-12-31T04:04:37;9.90;99.90
30047;DHT22;16878;52.542;13.426;2022-12-31T04:07:02;9.90;99.90
30047;DHT22;16878;52.542;13.426;2022-12-31T04:09:28;9.90;99.90
30047;DHT22;16878;52.542;13.426;2022-12-31T04:11:53;9.90;99.90
30047;DHT22;16878;52.542;13.426;2022-12-31T04:14:19;9.90;99.90
30047;DHT22;16878;52.542;13.426;2022-12-31T04:16:45;9.90;99.90
30047;DHT22;16878;52.542;13.426;2022-12-31T04:19:10;9.90;99.90
30047;DHT22;16878;52.542;13.426;2022-12-31T04:21:36;10.00;99.90
30047;DHT22;16878;52.542;13.426;2022-12-31T04:24:02;10.00;99.90
30047;DHT22;16878;52.542;13.426;2022-12-31T04:26:27;10.00;99.90
30047;DHT22;16878;52.542;13.426;2022-12-31T04:28:53;10.00;99.90
30047;DHT22;16878;52.542;13.426;2022-12-31T04:31:18;10.00;99.90
30047;DHT22;16878;52.542;13.426;2022-12-31T04:33:44;10.10;99.90
30047;DHT22;16878;52.542;13.426;2022-12-31T04:36:09;10.10;99.90
30047;DHT22;16878;52.542;13.426;2022-12-31T04:38:35;10.10;99.90
30047;DHT22;16878;52.542;13.426;2022-12-31T04:41:00;10.10;99.90
30047;DHT22;16878;52.542;13.426;2022-12-31T04:43:42;10.20;99.90
30047;DHT22;16878;52.542;13.426;2022-12-31T04:46:08;10.20;99.90
30047;DHT22;16878;52.542;13.426;2022-12-31T04:48:33;10.20;99.90
30047;DHT22;16878;52.542;13.426;2022-12-31T04:50:59;10.20;99.90
30047;DHT22;16878;52.542;13.426;2022-12-31T04:53:25;10.30;99.90
30047;DHT22;16878;52.542;13.426;2022-12-31T04:55:50;10.30;99.90
30047;DHT22;16878;52.542;13.426;2022-12-31T04:58:16;10.30;99.90
30047;DHT22;16878;52.542;13.426;2022-12-31T05:00:42;10.30;99.90
30047;DHT22;16878;52.542;13.426;2022-12-31T05:03:10;10.30;99.90
30047;DHT22;16878;52.542;13.426;2022-12-31T05:05:39;10.30;99.90
30047;DHT22;16878;52.542;13.426;2022-12-31T05:08:07;10.30;99.90
30047;DHT22;16878;52.542;13.426;2022-12-31T05:10:33;10.30;99.90
30047;DHT22;16878;52.542;13.426;2022-12-31T05:12:58;10.30;99.90
30047;DHT22;16878;52.542;13.426;2022-12-31T05:15:24;10.40;99.90
30047;DHT22;16878;52.542;13.426;2022-12-31T05:17:53;10.40;99.90
30047;DHT22;16878;52.542;13.426;2022-12-31T05:20:18;10.50;99.90
30047;DHT22;16878;52.542;13.426;2022-12-31T05:22:44;10.50;99.90
30047;DHT22;16878;52.542;13.426;2022-12-31T05:25:09;10.50;99.90
30047;DHT22;16878;52.542;13.426;2022-12-31T05:27:35;10.50;99.90
30047;DHT22;16878;52.542;13.426;2022-12-31T05:30:03;10.50;99.90
30047;DHT22;16878;52.542;13.426;2022-12-31T05:32:28;10.50;99.90
30047;DHT22;16878;52.542;13.426;2022-12-31T05:34:54;10.60;99.90
30047;DHT22;16878;52.542;13.426;2022-12-31T05:37:20;10.70;99.90
30047;DHT22;16878;52.542;13.426;2022-12-31T05:39:45;10.70;99.90
30047;DHT22;16878;52.542;13.426;2022-12-31T05:42:11;10.70;99.90
30047;DHT22;16878;52.542;13.426;2022-12-31T05:44:36;10.70;99.90
30047;DHT22;16878;52.542;13.426;2022-12-31T05:47:02;10.70;99.90
30047;DHT22;16878;52.542;13.426;2022-12-31T05:49:27;10.80;99.90
30047;DHT22;16878;52.542;13.426;2022-12-31T05:51:53;10.70;99.90
30047;DHT22;16878;52.542;13.426;2022-12-31T05:54:18;10.80;99.90
30047;DHT22;16878;52.542;13.426;2022-12-31T05:56:44;10.70;99.90
30047;DHT22;16878;52.542;13.426;2022-12-31T05:59:09;10.80;99.90
30047;DHT22;16878;52.542;13.426;2022-12-31T06:01:35;10.70;99.90
30047;DHT22;16878;52.542;13.426;2022-12-31T06:04:01;10.70;99.90
30047;DHT22;16878;52.542;13.426;2022-12-31T06:06:26;10.70;99.90
30047;DHT22;16878;52.542;13.426;2022-12-31T06:08:52;10.70;99.90
30047;DHT22;16878;52.542;13.426;2022-12-31T06:11:17;10.80;99.90
30047;DHT22;16878;52.542;13.426;2022-12-31T06:13:43;10.80;99.90
30047;DHT22;16878;52.542;13.426;2022-12-31T06:16:08;10.70;99.90
30047;DHT22;16878;52.542;13.426;2022-12-31T06:18:35;10.80;99.90
30047;DHT22;16878;52.542;13.426;2022-12-31T06:21:00;10.80;99.90
30047;DHT22;16878;52.542;13.426;2022-12-31T06:23:26;10.80;99.90
30047;DHT22;16878;52.542;13.426;2022-12-31T06:25:51;10.80;99.90
30047;DHT22;16878;52.542;13.426;2022-12-31T06:28:17;10.80;99.90
30047;DHT22;16878;52.542;13.426;2022-12-31T06:30:42;10.80;99.90
30047;DHT22;16878;52.542;13.426;2022-12-31T06:33:08;10.80;99.90
30047;DHT22;16878;52.542;13.426;2022-12-31T06:35:33;10.90;99.90
30047;DHT22;16878;52.542;13.426;2022-12-31T06:37:59;10.90;99.90
30047;DHT22;16878;52.542;13.426;2022-12-31T06:40:24;11.00;99.90
30047;DHT22;16878;52.542;13.426;2022-12-31T06:42:50;11.00;99.90
30047;DHT22;16878;52.542;13.426;2022-12-31T06:45:15;11.00;99.90
30047;DHT22;16878;52.542;13.426;2022-12-31T06:47:41;11.00;99.90
30047;DHT22;16878;52.542;13.426;2022-12-31T06:50:07;11.00;99.90
30047;DHT22;16878;52.542;13.426;2022-12-31T06:52:32;11.10;99.90
30047;DHT22;16878;52.542;13.426;2022-12-31T06:54:59;11.20;99.90
30047;DHT22;16878;52.542;13.426;2022-12-31T06:57:25;11.20;99.90
30047;DHT22;16878;52.542;13.426;2022-12-31T06:59:50;11.20;99.90
30047;DHT22;16878;52.542;13.426;2022-12-31T07:07:20;11.30;99.90
30047;DHT22;16878;52.542;13.426;2022-12-31T07:12:46;11.30;99.90
30047;DHT22;16878;52.542;13.426;2022-12-31T07:18:16;11.30;99.90
30047;DHT22;16878;52.542;13.426;2022-12-31T07:20:42;11.40;99.90
30047;DHT22;16878;52.542;13.426;2022-12-31T07:23:08;11.40;99.90
30047;DHT22;16878;52.542;13.426;2022-12-31T07:25:34;11.40;99.90
30047;DHT22;16878;52.542;13.426;2022-12-31T07:30:45;11.50;99.90
30047;DHT22;16878;52.542;13.426;2022-12-31T07:38:25;11.70;99.90
30047;DHT22;16878;52.542;13.426;2022-12-31T07:46:39;11.80;99.90
30047;DHT22;16878;52.542;13.426;2022-12-31T07:49:12;11.80;99.90
30047;DHT22;16878;52.542;13.426;2022-12-31T07:51:37;11.90;99.90
30047;DHT22;16878;52.542;13.426;2022-12-31T07:54:03;12.00;99.90
30047;DHT22;16878;52.542;13.426;2022-12-31T07:56:29;12.00;99.90
30047;DHT22;16878;52.542;13.426;2022-12-31T07:59:00;12.00;99.90
30047;DHT22;16878;52.542;13.426;2022-12-31T08:11:58;12.20;99.90
30047;DHT22;16878;52.542;13.426;2022-12-31T08:14:24;12.30;99.90
30047;DHT22;16878;52.542;13.426;2022-12-31T08:16:50;12.30;99.90
30047;DHT22;16878;52.542;13.426;2022-12-31T08:19:23;12.30;99.90
30047;DHT22;16878;52.542;13.426;2022-12-31T08:24:39;12.50;99.90
30047;DHT22;16878;52.542;13.426;2022-12-31T08:30:13;12.40;99.90
30047;DHT22;16878;52.542;13.426;2022-12-31T08:35:28;12.60;99.90
30047;DHT22;16878;52.542;13.426;2022-12-31T08:50:40;12.70;99.90
30047;DHT22;16878;52.542;13.426;2022-12-31T08:53:06;12.70;99.90
30047;DHT22;16878;52.542;13.426;2022-12-31T08:55:32;12.70;99.90
30047;DHT22;16878;52.542;13.426;2022-12-31T09:00:42;12.80;99.90
30047;DHT22;16878;52.542;13.426;2022-12-31T09:18:40;13.50;99.90
30047;DHT22;16878;52.542;13.426;2022-12-31T09:21:07;13.50;99.90
30047;DHT22;16878;52.542;13.426;2022-12-31T09:23:33;13.60;99.90
30047;DHT22;16878;52.542;13.426;2022-12-31T09:32:11;13.80;99.90
30047;DHT22;16878;52.542;13.426;2022-12-31T09:36:58;14.00;99.90
30047;DHT22;16878;52.542;13.426;2022-12-31T09:39:44;14.00;99.90
30047;DHT22;16878;52.542;13.426;2022-12-31T09:42:17;14.00;99.90
30047;DHT22;16878;52.542;13.426;2022-12-31T09:53:02;14.00;99.90
30047;DHT22;16878;52.542;13.426;2022-12-31T09:55:33;13.90;99.90
30047;DHT22;16878;52.542;13.426;2022-12-31T09:58:10;13.90;99.90
30047;DHT22;16878;52.542;13.426;2022-12-31T10:00:46;14.00;99.90
30047;DHT22;16878;52.542;13.426;2022-12-31T10:10:56;13.90;99.90
30047;DHT22;16878;52.542;13.426;2022-12-31T10:13:42;13.90;99.90
30047;DHT22;16878;52.542;13.426;2022-12-31T10:31:57;13.80;99.90
30047;DHT22;16878;52.542;13.426;2022-12-31T10:34:33;13.90;99.90
30047;DHT22;16878;52.542;13.426;2022-12-31T10:37:05;13.90;99.90
30047;DHT22;16878;52.542;13.426;2022-12-31T11:00:07;14.30;99.90
30047;DHT22;16878;52.542;13.426;2022-12-31T11:10:39;14.10;99.90
30047;DHT22;16878;52.542;13.426;2022-12-31T11:16:02;14.10;99.90
30047;DHT22;16878;52.542;13.426;2022-12-31T11:21:14;14.10;99.90
30047;DHT22;16878;52.542;13.426;2022-12-31T11:23:48;14.00;99.90
30047;DHT22;16878;52.542;13.426;2022-12-31T11:33:53;13.90;99.90
30047;DHT22;16878;52.542;13.426;2022-12-31T11:36:39;13.90;99.90
30047;DHT22;16878;52.542;13.426;2022-12-31T11:41:49;13.90;99.90
30047;DHT22;16878;52.542;13.426;2022-12-31T11:49:34;14.00;99.90
30047;DHT22;16878;52.542;13.426;2022-12-31T11:59:43;14.30;99.90
30047;DHT22;16878;52.542;13.426;2022-12-31T12:04:34;14.20;99.90
30047;DHT22;16878;52.542;13.426;2022-12-31T12:07:00;14.30;99.90
30047;DHT22;16878;52.542;13.426;2022-12-31T12:09:27;14.40;99.90
30047;DHT22;16878;52.542;13.426;2022-12-31T12:12:00;14.40;99.90
30047;DHT22;16878;52.542;13.426;2022-12-31T12:14:31;14.40;99.90
30047;DHT22;16878;52.542;13.426;2022-12-31T12:16:57;14.50;99.90
30047;DHT22;16878;52.542;13.426;2022-12-31T12:19:24;14.60;99.90
30047;DHT22;16878;52.542;13.426;2022-12-31T12:21:50;14.60;99.90
30047;DHT22;16878;52.542;13.426;2022-12-31T12:26:42;14.70;99.90
30047;DHT22;16878;52.542;13.426;2022-12-31T12:31:35;14.80;99.90
30047;DHT22;16878;52.542;13.426;2022-12-31T12:34:02;14.80;99.90
30047;DHT22;16878;52.542;13.426;2022-12-31T12:36:27;14.80;99.90
30047;DHT22;16878;52.542;13.426;2022-12-31T12:39:03;14.80;99.90
30047;DHT22;16878;52.542;13.426;2022-12-31T12:41:29;14.90;99.90
30047;DHT22;16878;52.542;13.426;2022-12-31T12:44:12;14.90;99.90
30047;DHT22;16878;52.542;13.426;2022-12-31T12:46:42;15.00;99.90
30047;DHT22;16878;52.542;13.426;2022-12-31T12:49:28;14.90;99.90
30047;DHT22;16878;52.542;13.426;2022-12-31T12:59:40;14.90;99.90
30047;DHT22;16878;52.542;13.426;2022-12-31T13:02:27;15.00;99.90
30047;DHT22;16878;52.542;13.426;2022-12-31T13:10:10;15.10;99.90
30047;DHT22;16878;52.542;13.426;2022-12-31T13:23:00;15.10;99.90
30047;DHT22;16878;52.542;13.426;2022-12-31T13:25:40;15.20;99.90
30047;DHT22;16878;52.542;13.426;2022-12-31T13:28:09;15.10;99.90
30047;DHT22;16878;52.542;13.426;2022-12-31T13:30:40;15.20;99.90
30047;DHT22;16878;52.542;13.426;2022-12-31T13:33:15;15.20;99.90
30047;DHT22;16878;52.542;13.426;2022-12-31T13:38:23;15.20;99.90
30047;DHT22;16878;52.542;13.426;2022-12-31T13:40:57;15.10;99.90
30047;DHT22;16878;52.542;13.426;2022-12-31T13:46:04;15.10;99.90
30047;DHT22;16878;52.542;13.426;2022-12-31T13:48:37;15.10;99.90
30047;DHT22;16878;52.542;13.426;2022-12-31T13:51:06;15.10;99.90
30047;DHT22;16878;52.542;13.426;2022-12-31T13:53:38;15.10;99.90
30047;DHT22;16878;52.542;13.426;2022-12-31T13:56:13;15.10;99.90
30047;DHT22;16878;52.542;13.426;2022-12-31T14:01:27;15.20;99.90
30047;DHT22;16878;52.542;13.426;2022-12-31T14:04:04;15.20;99.90
30047;DHT22;16878;52.542;13.426;2022-12-31T14:06:33;15.10;99.90
30047;DHT22;16878;52.542;13.426;2022-12-31T14:09:01;15.20;99.90
30047;DHT22;16878;52.542;13.426;2022-12-31T14:19:09;15.30;99.90
30047;DHT22;16878;52.542;13.426;2022-12-31T14:21:38;15.30;99.90
30047;DHT22;16878;52.542;13.426;2022-12-31T14:26:37;15.30;99.90
30047;DHT22;16878;52.542;13.426;2022-12-31T14:34:17;15.10;99.90
30047;DHT22;16878;52.542;13.426;2022-12-31T14:42:16;15.00;99.90
30047;DHT22;16878;52.542;13.426;2022-12-31T14:44:54;14.90;99.90
30047;DHT22;16878;52.542;13.426;2022-12-31T14:50:16;14.90;99.90
30047;DHT22;16878;52.542;13.426;2022-12-31T14:52:47;14.90;99.90
30047;DHT22;16878;52.542;13.426;2022-12-31T14:57:42;14.80;99.90
30047;DHT22;16878;52.542;13.426;2022-12-31T15:02:54;14.80;99.90
30047;DHT22;16878;52.542;13.426;2022-12-31T15:05:22;14.70;99.90
30047;DHT22;16878;52.542;13.426;2022-12-31T15:23:01;14.50;99.90
30047;DHT22;16878;52.542;13.426;2022-12-31T15:25:31;14.40;99.90
30047;DHT22;16878;52.542;13.426;2022-12-31T15:27:58;14.40;99.90
30047;DHT22;16878;52.542;13.426;2022-12-31T15:30:34;14.30;99.90
30047;DHT22;16878;52.542;13.426;2022-12-31T15:33:02;14.40;99.90
30047;DHT22;16878;52.542;13.426;2022-12-31T15:35:30;14.40;99.90
30047;DHT22;16878;52.542;13.426;2022-12-31T15:37:56;14.50;99.90
30047;DHT22;16878;52.542;13.426;2022-12-31T15:40:22;14.60;99.90
30047;DHT22;16878;52.542;13.426;2022-12-31T15:42:49;14.50;99.90
30047;DHT22;16878;52.542;13.426;2022-12-31T15:50:56;14.50;99.90
30047;DHT22;16878;52.542;13.426;2022-12-31T15:53:37;14.60;99.90
30047;DHT22;16878;52.542;13.426;2022-12-31T15:56:03;14.50;99.90
30047;DHT22;16878;52.542;13.426;2022-12-31T15:58:30;14.50;99.90
30047;DHT22;16878;52.542;13.426;2022-12-31T16:01:13;14.50;99.90
30047;DHT22;16878;52.542;13.426;2022-12-31T16:03:43;14.50;99.90
30047;DHT22;16878;52.542;13.426;2022-12-31T16:06:11;14.50;99.90
30047;DHT22;16878;52.542;13.426;2022-12-31T16:08:37;14.50;99.90
30047;DHT22;16878;52.542;13.426;2022-12-31T16:11:07;14.50;99.90
30047;DHT22;16878;52.542;13.426;2022-12-31T16:13:38;14.60;99.90
30047;DHT22;16878;52.542;13.426;2022-12-31T16:16:05;14.70;99.90
30047;DHT22;16878;52.542;13.426;2022-12-31T16:18:38;14.70;99.90
30047;DHT22;16878;52.542;13.426;2022-12-31T16:21:04;14.70;99.90
30047;DHT22;16878;52.542;13.426;2022-12-31T16:23:29;14.70;99.90
30047;DHT22;16878;52.542;13.426;2022-12-31T16:25:56;14.80;99.90
30047;DHT22;16878;52.542;13.426;2022-12-31T16:28:25;14.80;99.90
30047;DHT22;16878;52.542;13.426;2022-12-31T16:31:13;14.80;99.90
30047;DHT22;16878;52.542;13.426;2022-12-31T16:33:39;14.90;99.90
30047;DHT22;16878;52.542;13.426;2022-12-31T16:36:05;14.90;99.90
30047;DHT22;16878;52.542;13.426;2022-12-31T16:38:35;14.90;99.90
30047;DHT22;16878;52.542;13.426;2022-12-31T16:43:27;14.80;99.90
30047;DHT22;16878;52.542;13.426;2022-12-31T16:45:57;14.80;99.90
30047;DHT22;16878;52.542;13.426;2022-12-31T16:48:31;14.80;99.90
30047;DHT22;16878;52.542;13.426;2022-12-31T16:50:56;14.80;99.90
30047;DHT22;16878;52.542;13.426;2022-12-31T16:53:23;14.90;99.90
30047;DHT22;16878;52.542;13.426;2022-12-31T16:55:51;14.90;99.90
30047;DHT22;16878;52.542;13.426;2022-12-31T16:58:18;15.00;99.90
30047;DHT22;16878;52.542;13.426;2022-12-31T17:00:45;15.00;99.90
30047;DHT22;16878;52.542;13.426;2022-12-31T17:03:18;14.90;99.90
30047;DHT22;16878;52.542;13.426;2022-12-31T17:11:17;14.70;99.90
30047;DHT22;16878;52.542;13.426;2022-12-31T17:13:42;14.70;99.90
30047;DHT22;16878;52.542;13.426;2022-12-31T17:16:16;14.70;99.90
30047;DHT22;16878;52.542;13.426;2022-12-31T17:18:42;14.60;99.90
30047;DHT22;16878;52.542;13.426;2022-12-31T17:21:08;14.70;99.90
30047;DHT22;16878;52.542;13.426;2022-12-31T17:23:35;14.70;99.90
30047;DHT22;16878;52.542;13.426;2022-12-31T17:28:31;14.80;99.90
30047;DHT22;16878;52.542;13.426;2022-12-31T17:31:01;14.80;99.90
30047;DHT22;16878;52.542;13.426;2022-12-31T17:33:46;14.80;99.90
30047;DHT22;16878;52.542;13.426;2022-12-31T17:36:21;14.90;99.90
30047;DHT22;16878;52.542;13.426;2022-12-31T17:38:47;14.90;99.90
30047;DHT22;16878;52.542;13.426;2022-12-31T17:41:14;15.00;99.90
30047;DHT22;16878;52.542;13.426;2022-12-31T17:43:41;15.00;99.90
30047;DHT22;16878;52.542;13.426;2022-12-31T17:46:10;15.00;99.90
30047;DHT22;16878;52.542;13.426;2022-12-31T17:48:36;15.10;99.90
30047;DHT22;16878;52.542;13.426;2022-12-31T17:51:02;15.00;99.90
30047;DHT22;16878;52.542;13.426;2022-12-31T17:53:27;15.00;99.90
30047;DHT22;16878;52.542;13.426;2022-12-31T17:55:59;15.10;99.90
30047;DHT22;16878;52.542;13.426;2022-12-31T18:01:21;15.00;99.90
30047;DHT22;16878;52.542;13.426;2022-12-31T18:03:50;15.00;99.90
30047;DHT22;16878;52.542;13.426;2022-12-31T18:06:15;14.90;99.90
30047;DHT22;16878;52.542;13.426;2022-12-31T18:08:42;14.90;99.90
30047;DHT22;16878;52.542;13.426;2022-12-31T18:11:10;14.90;99.90
30047;DHT22;16878;52.542;13.426;2022-12-31T18:13:38;14.90;99.90
30047;DHT22;16878;52.542;13.426;2022-12-31T18:16:04;14.80;99.90
30047;DHT22;16878;52.542;13.426;2022-12-31T18:18:31;14.70;99.90
30047;DHT22;16878;52.542;13.426;2022-12-31T18:21:01;14.70;99.90
30047;DHT22;16878;52.542;13.426;2022-12-31T18:23:28;14.70;99.90
30047;DHT22;16878;52.542;13.426;2022-12-31T18:25:54;14.70;99.90
30047;DHT22;16878;52.542;13.426;2022-12-31T18:28:20;14.70;99.90
30047;DHT22;16878;52.542;13.426;2022-12-31T18:30:46;14.60;99.90
30047;DHT22;16878;52.542;13.426;2022-12-31T18:33:15;14.60;99.90
30047;DHT22;16878;52.542;13.426;2022-12-31T18:35:49;14.50;99.90
30047;DHT22;16878;52.542;13.426;2022-12-31T18:38:16;14.50;99.90
30047;DHT22;16878;52.542;13.426;2022-12-31T18:40:55;14.50;99.90
30047;DHT22;16878;52.542;13.426;2022-12-31T18:43:25;14.40;99.90
30047;DHT22;16878;52.542;13.426;2022-12-31T18:45:51;14.40;99.90
30047;DHT22;16878;52.542;13.426;2022-12-31T18:48:17;14.40;99.90
30047;DHT22;16878;52.542;13.426;2022-12-31T18:50:46;14.40;99.90
30047;DHT22;16878;52.542;13.426;2022-12-31T18:53:16;14.40;99.90
30047;DHT22;16878;52.542;13.426;2022-12-31T18:55:52;14.40;99.90
30047;DHT22;16878;52.542;13.426;2022-12-31T18:58:18;14.40;99.90
30047;DHT22;16878;52.542;13.426;2022-12-31T19:00:45;14.40;99.90
30047;DHT22;16878;52.542;13.426;2022-12-31T19:03:14;14.40;99.90
30047;DHT22;16878;52.542;13.426;2022-12-31T19:05:40;14.40;99.90
30047;DHT22;16878;52.542;13.426;2022-12-31T19:08:05;14.40;99.90
30047;DHT22;16878;52.542;13.426;2022-12-31T19:10:31;14.40;99.90
30047;DHT22;16878;52.542;13.426;2022-12-31T19:13:01;14.40;99.90
30047;DHT22;16878;52.542;13.426;2022-12-31T19:15:30;14.40;99.90
30047;DHT22;16878;52.542;13.426;2022-12-31T19:18:01;14.40;99.90
30047;DHT22;16878;52.542;13.426;2022-12-31T19:20:27;14.30;99.90
30047;DHT22;16878;52.542;13.426;2022-12-31T19:22:54;14.30;99.90
30047;DHT22;16878;52.542;13.426;2022-12-31T19:25:21;14.30;99.90
30047;DHT22;16878;52.542;13.426;2022-12-31T19:27:47;14.30;99.90
30047;DHT22;16878;52.542;13.426;2022-12-31T19:30:14;14.30;99.90
30047;DHT22;16878;52.542;13.426;2022-12-31T19:32:40;14.30;99.90
30047;DHT22;16878;52.542;13.426;2022-12-31T19:35:05;14.20;99.90
30047;DHT22;16878;52.542;13.426;2022-12-31T19:37:31;14.20;99.90
30047;DHT22;16878;52.542;13.426;2022-12-31T19:39:56;14.20;99.90
30047;DHT22;16878;52.542;13.426;2022-12-31T19:42:22;14.20;99.90
30047;DHT22;16878;52.542;13.426;2022-12-31T19:44:48;14.20;99.90
30047;DHT22;16878;52.542;13.426;2022-12-31T19:47:14;14.20;99.90
30047;DHT22;16878;52.542;13.426;2022-12-31T19:49:39;14.10;99.90
30047;DHT22;16878;52.542;13.426;2022-12-31T19:52:05;14.10;99.90
30047;DHT22;16878;52.542;13.426;2022-12-31T19:54:30;14.00;99.90
30047;DHT22;16878;52.542;13.426;2022-12-31T19:56:59;14.00;99.90
30047;DHT22;16878;52.542;13.426;2022-12-31T19:59:24;14.00;99.90
30047;DHT22;16878;52.542;13.426;2022-12-31T20:01:50;14.10;99.90
30047;DHT22;16878;52.542;13.426;2022-12-31T20:04:16;14.00;99.90
30047;DHT22;16878;52.542;13.426;2022-12-31T20:06:42;14.00;99.90
30047;DHT22;16878;52.542;13.426;2022-12-31T20:09:07;14.10;99.90
30047;DHT22;16878;52.542;13.426;2022-12-31T20:11:33;14.20;99.90
30047;DHT22;16878;52.542;13.426;2022-12-31T20:13:58;14.20;99.90
30047;DHT22;16878;52.542;13.426;2022-12-31T20:16:24;14.20;99.90
30047;DHT22;16878;52.542;13.426;2022-12-31T20:18:55;14.20;99.90
30047;DHT22;16878;52.542;13.426;2022-12-31T20:21:23;14.10;99.90
30047;DHT22;16878;52.542;13.426;2022-12-31T20:23:49;14.10;99.90
30047;DHT22;16878;52.542;13.426;2022-12-31T20:26:15;14.10;99.90